createdAt,value
2022-12-04T00:01:26.528Z,31.38
2022-12-04T00:03:59.794Z,34.08
2022-12-04T00:06:28.436Z,31.15
2022-12-04T00:08:56.984Z,31.27
2022-12-04T00:11:33.105Z,31.30
2022-12-04T00:14:06.913Z,31.70
2022-12-04T00:16:35.962Z,32.95
2022-12-04T00:19:06.035Z,30.83
2022-12-04T00:21:34.280Z,32.08
2022-12-04T00:24:02.376Z,33.03
2022-12-04T00:26:31.835Z,31.45
2022-12-04T00:29:01.504Z,31.55
2022-12-04T00:31:32.029Z,31.35
2022-12-04T00:34:02.042Z,31.65
2022-12-04T00:36:31.765Z,31.65
2022-12-04T00:39:01.326Z,32.47
2022-12-04T00:41:31.875Z,32.22
2022-12-04T00:44:00.286Z,32.05
2022-12-04T00:46:28.905Z,30.10
2022-12-04T00:48:58.091Z,32.80
2022-12-04T00:51:26.837Z,31.73
2022-12-04T00:53:56.535Z,29.38
2022-12-04T00:56:27.897Z,31.00
2022-12-04T00:58:58.082Z,32.67
2022-12-04T01:01:27.659Z,31.83
2022-12-04T01:03:56.763Z,31.92
2022-12-04T01:06:27.487Z,31.20
2022-12-04T01:08:59.025Z,32.92
2022-12-04T01:11:29.476Z,31.38
2022-12-04T01:13:58.252Z,30.70
2022-12-04T01:16:28.903Z,32.58
2022-12-04T01:18:57.217Z,31.00
2022-12-04T01:21:25.320Z,31.23
2022-12-04T01:23:53.505Z,31.13
2022-12-04T01:26:23.235Z,31.45
2022-12-04T01:28:51.338Z,29.50
2022-12-04T01:31:21.270Z,32.85
2022-12-04T01:33:50.533Z,29.73
2022-12-04T01:36:21.049Z,31.27
2022-12-04T01:38:49.169Z,30.20
2022-12-04T01:41:20.843Z,31.15
2022-12-04T01:44:09.203Z,31.98
2022-12-04T01:46:37.309Z,31.92
2022-12-04T01:49:08.646Z,31.15
2022-12-04T01:51:40.717Z,36.50
2022-12-04T01:54:12.463Z,32.65
2022-12-04T01:56:45.141Z,32.50
2022-12-04T01:59:18.451Z,31.77
2022-12-04T02:01:54.203Z,32.50
2022-12-04T02:04:22.456Z,32.63
2022-12-04T02:06:50.495Z,35.40
2022-12-04T02:09:24.726Z,34.45
2022-12-04T02:12:04.019Z,33.65
2022-12-04T02:14:45.772Z,31.45
2022-12-04T02:17:23.145Z,31.52
2022-12-04T02:20:09.817Z,33.08
2022-12-04T02:23:09.532Z,31.33
2022-12-04T02:25:43.901Z,31.10
2022-12-04T02:28:23.100Z,31.88
2022-12-04T02:30:54.373Z,33.15
2022-12-04T02:33:27.376Z,33.65
2022-12-04T02:36:02.370Z,33.58
2022-12-04T02:38:36.152Z,34.78
2022-12-04T02:41:09.688Z,35.20
2022-12-04T02:43:43.829Z,36.08
2022-12-04T02:46:18.320Z,37.92
2022-12-04T02:48:51.121Z,37.00
2022-12-04T02:53:53.826Z,34.00
2022-12-04T02:58:59.486Z,37.20
2022-12-04T03:01:33.168Z,37.78
2022-12-04T03:04:07.245Z,40.92
2022-12-04T03:06:40.752Z,45.20
2022-12-04T03:09:14.026Z,39.78
2022-12-04T03:11:47.028Z,41.08
2022-12-04T03:14:20.397Z,41.08
2022-12-04T03:16:51.404Z,37.83
2022-12-04T03:19:23.351Z,37.47
2022-12-04T03:21:55.417Z,37.60
2022-12-04T03:24:28.133Z,37.78
2022-12-04T03:27:02.357Z,33.10
2022-12-04T03:29:37.244Z,35.42
2022-12-04T03:32:12.540Z,33.97
2022-12-04T03:34:47.270Z,35.63
2022-12-04T03:37:18.527Z,34.85
2022-12-04T03:39:55.467Z,32.30
2022-12-04T03:42:27.210Z,33.60
2022-12-04T03:45:02.403Z,35.95
2022-12-04T03:47:35.729Z,33.20
2022-12-04T03:50:08.371Z,33.67
2022-12-04T03:52:44.268Z,31.95
2022-12-04T03:55:16.984Z,31.20
2022-12-04T03:57:46.754Z,31.73
2022-12-04T04:00:19.030Z,31.15
2022-12-04T04:02:53.635Z,32.00
2022-12-04T04:05:23.831Z,30.30
2022-12-04T04:07:55.931Z,30.88
2022-12-04T04:10:26.550Z,30.98
2022-12-04T04:13:13.327Z,28.85
2022-12-04T04:16:04.928Z,30.75
2022-12-04T04:18:51.260Z,29.38
2022-12-04T04:21:41.965Z,29.40
2022-12-04T04:24:20.167Z,29.77
2022-12-04T04:26:53.500Z,29.23
2022-12-04T04:29:21.682Z,28.73
2022-12-04T04:32:00.767Z,27.48
2022-12-04T04:34:36.772Z,27.80
2022-12-04T04:37:12.923Z,29.17
2022-12-04T04:39:46.816Z,28.67
2022-12-04T04:42:23.185Z,27.85
2022-12-04T04:44:56.311Z,28.38
2022-12-04T04:47:33.773Z,28.30
2022-12-04T04:50:05.703Z,26.17
2022-12-04T04:52:34.955Z,26.63
2022-12-04T04:55:04.754Z,27.70
2022-12-04T04:57:36.779Z,25.90
2022-12-04T05:00:07.576Z,26.25
2022-12-04T05:02:37.305Z,27.02
2022-12-04T05:05:05.995Z,25.33
2022-12-04T05:07:34.123Z,25.10
2022-12-04T05:10:02.207Z,25.65
2022-12-04T05:12:30.196Z,24.00
2022-12-04T05:14:58.229Z,23.70
2022-12-04T05:17:26.231Z,24.52
2022-12-04T05:19:55.247Z,24.15
2022-12-04T05:22:26.595Z,22.80
2022-12-04T05:24:55.260Z,20.58
2022-12-04T05:27:24.112Z,22.48
2022-12-04T05:29:54.109Z,21.88
2022-12-04T05:32:23.619Z,23.58
2022-12-04T05:34:52.951Z,22.30
2022-12-04T05:37:22.749Z,22.00
2022-12-04T05:39:50.759Z,20.02
2022-12-04T05:42:18.783Z,22.20
2022-12-04T05:44:46.842Z,22.02
2022-12-04T05:47:15.051Z,21.95
2022-12-04T05:49:43.218Z,21.75
2022-12-04T05:52:11.835Z,22.00
2022-12-04T05:54:41.523Z,19.65
2022-12-04T05:57:09.701Z,19.95
2022-12-04T05:59:37.914Z,19.23
2022-12-04T06:02:06.027Z,21.08
2022-12-04T06:04:34.052Z,19.88
2022-12-04T06:07:02.057Z,22.38
2022-12-04T06:09:30.029Z,20.17
2022-12-04T06:12:00.192Z,21.08
2022-12-04T06:14:28.339Z,20.67
2022-12-04T06:16:56.457Z,20.98
2022-12-04T06:19:24.971Z,22.00
2022-12-04T06:21:54.626Z,23.88
2022-12-04T06:24:25.314Z,24.23
2022-12-04T06:27:26.045Z,24.33
2022-12-04T06:29:47.613Z,23.73
2022-12-04T06:32:21.117Z,21.75
2022-12-04T06:34:51.679Z,22.98
2022-12-04T06:37:19.931Z,22.55
2022-12-04T06:39:47.962Z,22.92
2022-12-04T06:42:16.003Z,23.67
2022-12-04T06:44:43.992Z,23.48
2022-12-04T06:47:13.500Z,22.70
2022-12-04T06:49:41.643Z,25.05
2022-12-04T06:52:09.657Z,24.05
2022-12-04T06:54:37.856Z,24.73
2022-12-04T06:57:05.895Z,23.00
2022-12-04T06:59:34.070Z,24.73
2022-12-04T07:02:02.125Z,23.05
2022-12-04T07:04:31.500Z,22.80
2022-12-04T07:06:59.545Z,22.20
2022-12-04T07:09:27.564Z,25.02
2022-12-04T07:11:55.596Z,25.58
2022-12-04T07:14:23.610Z,24.13
2022-12-04T07:16:51.704Z,24.67
2022-12-04T07:19:19.884Z,28.33
2022-12-04T07:21:49.273Z,28.00
2022-12-04T07:24:18.306Z,29.45
2022-12-04T07:26:46.903Z,29.63
2022-12-04T07:29:14.991Z,28.27
2022-12-04T07:31:44.594Z,29.02
2022-12-04T07:34:12.722Z,28.73
2022-12-04T07:36:44.088Z,29.40
2022-12-04T07:39:13.573Z,27.35
2022-12-04T07:41:41.637Z,26.88
2022-12-04T07:44:09.695Z,27.40
2022-12-04T07:46:37.749Z,26.77
2022-12-04T07:49:05.776Z,28.30
2022-12-04T07:51:33.793Z,25.58
2022-12-04T07:54:04.376Z,26.75
2022-12-04T07:56:34.764Z,26.60
2022-12-04T07:59:03.247Z,26.60
2022-12-04T08:01:32.143Z,28.15
2022-12-04T08:04:03.970Z,25.02
2022-12-04T08:06:35.498Z,26.40
2022-12-04T08:09:09.223Z,26.38
2022-12-04T08:11:39.715Z,27.13
2022-12-04T08:14:08.995Z,28.65
2022-12-04T08:16:37.205Z,25.58
2022-12-04T08:19:05.715Z,25.55
2022-12-04T08:21:34.315Z,26.55
2022-12-04T08:24:03.205Z,27.85
2022-12-04T08:26:32.419Z,26.50
2022-12-04T08:29:02.644Z,27.52
2022-12-04T08:31:33.916Z,26.35
2022-12-04T08:34:03.951Z,26.15
2022-12-04T08:36:32.470Z,25.23
2022-12-04T08:39:00.576Z,24.52
2022-12-04T08:41:29.000Z,27.00
2022-12-04T08:43:58.083Z,28.23
2022-12-04T08:46:28.835Z,27.98
2022-12-04T08:48:57.950Z,25.52
2022-12-04T08:51:28.232Z,26.58
2022-12-04T08:53:57.561Z,27.60
2022-12-04T08:56:26.735Z,27.65
2022-12-04T08:58:56.263Z,28.20
2022-12-04T09:01:25.927Z,26.67
2022-12-04T09:03:56.037Z,27.55
2022-12-04T09:06:25.382Z,27.73
2022-12-04T09:08:54.861Z,27.50
2022-12-04T09:11:25.372Z,28.40
2022-12-04T09:13:54.333Z,29.38
2022-12-04T09:16:24.887Z,27.00
2022-12-04T09:18:53.570Z,28.42
2022-12-04T09:21:25.238Z,30.05
2022-12-04T09:23:53.934Z,30.50
2022-12-04T09:26:24.736Z,30.27
2022-12-04T09:28:54.146Z,32.80
2022-12-04T09:31:23.217Z,28.40
2022-12-04T09:33:51.619Z,29.27
2022-12-04T09:36:20.519Z,27.00
2022-12-04T09:38:51.728Z,30.08
2022-12-04T09:41:51.296Z,27.70
2022-12-04T09:44:25.359Z,28.60
2022-12-04T09:46:56.863Z,30.15
2022-12-04T09:49:29.322Z,29.07
2022-12-04T09:52:02.982Z,27.70
2022-12-04T09:54:39.318Z,28.67
2022-12-04T09:57:16.813Z,27.27
2022-12-04T09:59:46.595Z,27.48
2022-12-04T10:02:34.003Z,29.10
2022-12-04T10:05:03.221Z,29.30
2022-12-04T10:07:38.424Z,26.88
2022-12-04T10:10:16.723Z,26.30
2022-12-04T10:12:57.676Z,27.80
2022-12-04T10:15:31.572Z,25.75
2022-12-04T10:18:18.171Z,26.75
2022-12-04T10:21:02.562Z,25.42
2022-12-04T10:23:44.808Z,26.52
2022-12-04T10:26:17.991Z,26.45
2022-12-04T10:28:55.052Z,25.35
2022-12-04T10:31:26.340Z,25.50
2022-12-04T10:33:58.991Z,25.90
2022-12-04T10:36:32.669Z,26.17
2022-12-04T10:39:04.240Z,25.38
2022-12-04T10:41:41.881Z,22.15
2022-12-04T10:44:15.705Z,22.60
2022-12-04T10:46:46.379Z,18.23
2022-12-04T10:49:18.801Z,17.80
2022-12-04T10:51:47.844Z,16.90
2022-12-04T10:54:22.755Z,19.15
2022-12-04T10:56:58.068Z,21.52
2022-12-04T10:59:27.087Z,22.25
2022-12-04T11:02:06.632Z,22.08
2022-12-04T11:04:36.462Z,18.05
2022-12-04T11:07:06.182Z,19.10
2022-12-04T11:09:35.070Z,21.30
2022-12-04T11:12:11.005Z,19.65
2022-12-04T11:14:42.721Z,21.42
2022-12-04T11:17:18.286Z,20.38
2022-12-04T11:22:19.988Z,17.15
2022-12-04T11:24:54.187Z,16.42
2022-12-04T11:27:27.321Z,16.58
2022-12-04T11:29:57.059Z,14.68
2022-12-04T11:32:28.087Z,17.80
2022-12-04T11:35:02.800Z,17.05
2022-12-04T11:37:36.467Z,16.85
2022-12-04T11:40:18.925Z,17.42
2022-12-04T11:42:59.635Z,17.52
2022-12-04T11:45:27.712Z,18.50
2022-12-04T11:48:00.309Z,18.30
2022-12-04T11:50:39.365Z,18.77
2022-12-04T11:53:17.506Z,19.13
2022-12-04T11:56:16.312Z,18.10
2022-12-04T11:59:18.321Z,17.10
2022-12-04T12:01:56.465Z,17.67
2022-12-04T12:04:57.149Z,17.92
2022-12-04T12:07:36.205Z,16.75
2022-12-04T12:10:10.176Z,17.63
2022-12-04T12:12:48.236Z,15.60
2022-12-04T12:15:28.000Z,17.67
2022-12-04T12:18:13.608Z,16.15
2022-12-04T12:20:47.274Z,17.77
2022-12-04T12:26:03.577Z,17.10
2022-12-04T12:28:46.651Z,17.25
2022-12-04T12:31:31.789Z,17.27
2022-12-04T12:34:05.210Z,18.33
2022-12-04T12:36:43.424Z,19.42
2022-12-04T12:39:18.030Z,18.98
2022-12-04T12:41:51.972Z,18.33
2022-12-04T12:44:25.914Z,19.20
2022-12-04T12:47:00.768Z,17.17
2022-12-04T12:49:36.874Z,18.20
2022-12-04T12:52:11.640Z,18.95
2022-12-04T12:54:45.903Z,16.15
2022-12-04T12:57:19.264Z,16.92
2022-12-04T12:59:51.896Z,17.42
2022-12-04T13:02:28.962Z,17.33
2022-12-04T13:05:01.548Z,18.05
2022-12-04T13:07:38.522Z,18.00
2022-12-04T13:10:15.424Z,15.05
2022-12-04T13:12:49.300Z,15.82
2022-12-04T13:15:19.080Z,16.58
2022-12-04T13:17:50.965Z,16.58
2022-12-04T13:20:24.095Z,17.87
2022-12-04T13:23:02.222Z,17.80
2022-12-04T13:25:42.707Z,17.02
2022-12-04T13:28:24.489Z,16.75
2022-12-04T13:31:01.531Z,16.33
2022-12-04T13:33:50.309Z,18.35
2022-12-04T13:36:37.819Z,17.70
2022-12-04T13:39:35.310Z,18.98
2022-12-04T13:42:06.508Z,19.42
2022-12-04T13:44:36.648Z,16.88
2022-12-04T13:47:07.479Z,17.60
2022-12-04T13:49:38.964Z,17.48
2022-12-04T13:52:23.625Z,17.23
2022-12-04T13:54:59.371Z,18.02
2022-12-04T13:57:28.634Z,17.50
2022-12-04T14:00:06.528Z,18.95
2022-12-04T14:02:38.159Z,18.70
2022-12-04T14:05:09.921Z,18.45
2022-12-04T14:07:40.281Z,18.77
2022-12-04T14:10:28.489Z,18.00
2022-12-04T14:13:01.402Z,17.70
2022-12-04T14:15:34.314Z,17.27
2022-12-04T14:18:05.863Z,18.30
2022-12-04T14:20:36.837Z,18.00
2022-12-04T14:23:10.759Z,18.30
2022-12-04T14:25:41.402Z,18.35
2022-12-04T14:28:42.210Z,17.98
2022-12-04T14:31:25.239Z,18.20
2022-12-04T14:33:58.194Z,16.27
2022-12-04T14:36:31.595Z,16.83
2022-12-04T14:39:15.265Z,17.50
2022-12-04T14:41:43.501Z,16.52
2022-12-04T14:44:24.639Z,15.75
2022-12-04T14:46:57.223Z,15.98
2022-12-04T14:49:36.500Z,17.17
2022-12-04T14:52:11.200Z,17.60
2022-12-04T14:54:47.928Z,17.45
2022-12-04T14:57:38.266Z,18.55
2022-12-04T15:00:16.144Z,18.70
2022-12-04T15:02:46.527Z,19.30
2022-12-04T15:05:21.381Z,20.20
2022-12-04T15:07:53.907Z,21.20
2022-12-04T15:10:42.005Z,19.15
2022-12-04T15:13:10.655Z,21.00
2022-12-04T15:15:39.911Z,20.30
2022-12-04T15:18:18.684Z,21.50
2022-12-04T15:20:58.387Z,20.20
2022-12-04T15:23:31.122Z,22.83
2022-12-04T15:26:02.581Z,21.40
2022-12-04T15:28:36.715Z,22.38
2022-12-04T15:31:09.518Z,22.13
2022-12-04T15:36:11.442Z,20.98
2022-12-04T15:38:42.058Z,22.15
2022-12-04T15:41:30.626Z,22.70
2022-12-04T15:43:59.320Z,22.70
2022-12-04T15:46:33.456Z,22.63
2022-12-04T15:49:09.863Z,23.33
2022-12-04T15:51:38.036Z,22.77
2022-12-04T15:54:15.347Z,22.75
2022-12-04T15:56:43.554Z,21.40
2022-12-04T15:59:19.935Z,22.75
2022-12-04T16:01:48.639Z,24.88
2022-12-04T16:04:22.972Z,24.50
2022-12-04T16:06:54.076Z,25.42
2022-12-04T16:09:25.890Z,23.13
2022-12-04T16:12:02.709Z,23.93
2022-12-04T16:14:33.875Z,24.35
2022-12-04T16:17:06.735Z,24.10
2022-12-04T16:22:06.951Z,24.70
2022-12-04T16:24:36.909Z,24.83
2022-12-04T16:27:11.260Z,26.10
2022-12-04T16:29:39.276Z,27.25
2022-12-04T16:32:08.108Z,25.55
2022-12-04T16:34:36.526Z,25.52
2022-12-04T16:37:12.385Z,25.30
2022-12-04T16:39:45.797Z,23.65
2022-12-04T16:48:06.317Z,25.05
2022-12-04T16:50:34.649Z,26.23
2022-12-04T16:53:03.703Z,26.55
2022-12-04T16:55:36.595Z,26.15
2022-12-04T16:58:05.488Z,25.60
2022-12-04T17:00:34.086Z,26.27
2022-12-04T17:03:04.785Z,26.30
2022-12-04T17:05:37.371Z,25.25
2022-12-04T17:08:06.097Z,25.92
2022-12-04T17:10:34.629Z,27.05
2022-12-04T17:13:03.084Z,25.65
2022-12-04T17:15:31.296Z,26.10
2022-12-04T17:17:59.868Z,27.50
2022-12-04T17:20:28.745Z,26.30
2022-12-04T17:22:59.855Z,26.58
2022-12-04T17:25:29.695Z,27.80
2022-12-04T17:27:58.736Z,27.17
2022-12-04T17:30:31.374Z,25.90
2022-12-04T17:33:02.522Z,26.95
2022-12-04T17:35:30.788Z,26.70
2022-12-04T17:38:05.709Z,27.20
2022-12-04T17:40:35.092Z,25.98
2022-12-04T17:43:03.709Z,26.30
2022-12-04T17:45:33.428Z,26.33
2022-12-04T17:48:02.106Z,26.58
2022-12-04T17:50:30.849Z,25.88
2022-12-04T17:53:00.401Z,26.95
2022-12-04T17:55:29.900Z,26.13
2022-12-04T17:57:59.039Z,26.52
2022-12-04T18:00:27.527Z,26.83
2022-12-04T18:02:56.065Z,26.98
2022-12-04T18:05:24.625Z,26.00
2022-12-04T18:07:52.927Z,25.88
2022-12-04T18:10:22.590Z,26.15
2022-12-04T18:12:51.077Z,25.52
2022-12-04T18:15:19.324Z,26.38
2022-12-04T18:17:47.788Z,27.58
2022-12-04T18:20:16.433Z,27.13
2022-12-04T18:22:44.946Z,25.58
2022-12-04T18:25:13.042Z,27.13
2022-12-04T18:27:43.534Z,26.45
2022-12-04T18:30:12.977Z,28.40
2022-12-04T18:32:41.681Z,28.05
2022-12-04T18:35:10.353Z,28.35
2022-12-04T18:37:38.730Z,28.70
2022-12-04T18:40:09.264Z,28.52
2022-12-04T18:42:38.146Z,28.65
2022-12-04T18:45:09.208Z,29.15
2022-12-04T18:47:37.931Z,28.20
2022-12-04T18:50:07.438Z,26.08
2022-12-04T18:52:38.001Z,28.52
2022-12-04T18:55:07.062Z,27.13
2022-12-04T18:57:36.183Z,26.90
2022-12-04T19:00:04.751Z,27.13
2022-12-04T19:02:34.226Z,28.35
2022-12-04T19:05:02.750Z,27.88
2022-12-04T19:07:31.666Z,26.08
2022-12-04T19:10:10.874Z,25.52
2022-12-04T19:12:39.970Z,27.38
2022-12-04T19:15:09.433Z,25.52
2022-12-04T19:17:39.446Z,27.67
2022-12-04T19:20:09.454Z,27.13
2022-12-04T19:22:37.837Z,25.80
2022-12-04T19:25:09.827Z,24.77
2022-12-04T19:27:38.461Z,26.65
2022-12-04T19:30:08.601Z,25.27
2022-12-04T19:32:38.986Z,23.67
2022-12-04T19:35:09.133Z,24.73
2022-12-04T19:37:41.757Z,25.65
2022-12-04T19:40:12.153Z,25.80
2022-12-04T19:42:41.422Z,25.45
2022-12-04T19:45:11.017Z,24.65
2022-12-04T19:47:41.534Z,24.83
2022-12-04T19:50:10.988Z,25.17
2022-12-04T19:52:39.450Z,23.98
2022-12-04T19:55:09.547Z,23.77
2022-12-04T19:57:38.368Z,23.42
2022-12-04T20:00:11.412Z,23.25
2022-12-04T20:02:41.600Z,22.38
2022-12-04T20:05:10.952Z,21.88
2022-12-04T20:07:39.703Z,22.70
2022-12-04T20:10:12.918Z,21.42
2022-12-04T20:12:42.753Z,24.05
2022-12-04T20:15:15.171Z,21.85
2022-12-04T20:17:45.476Z,22.20
2022-12-04T20:20:17.185Z,21.85
2022-12-04T20:22:45.866Z,22.52
2022-12-04T20:25:14.204Z,21.27
2022-12-04T20:27:42.768Z,21.55
2022-12-04T20:30:11.823Z,22.65
2022-12-04T20:32:40.395Z,21.02
2022-12-04T20:35:13.970Z,20.63
2022-12-04T20:37:42.690Z,21.35
2022-12-04T20:40:17.611Z,20.13
2022-12-04T20:42:46.274Z,23.10
2022-12-04T20:45:15.102Z,22.80
2022-12-04T20:47:44.104Z,22.17
2022-12-04T20:50:14.072Z,22.15
2022-12-04T20:52:42.546Z,22.05
2022-12-04T20:55:11.454Z,22.38
2022-12-04T20:57:39.807Z,22.30
2022-12-04T21:00:09.449Z,20.33
2022-12-04T21:02:37.882Z,22.25
2022-12-04T21:05:06.739Z,21.40
2022-12-04T21:07:37.035Z,21.67
2022-12-04T21:10:07.127Z,21.63
2022-12-04T21:15:58.921Z,19.75
2022-12-04T21:18:27.491Z,20.73
2022-12-04T21:20:55.492Z,20.85
2022-12-04T21:23:24.903Z,20.60
2022-12-04T21:25:56.777Z,18.88
2022-12-04T21:28:25.681Z,19.43
2022-12-04T21:30:53.859Z,18.98
2022-12-04T21:33:22.127Z,18.60
2022-12-04T21:35:50.164Z,16.40
2022-12-04T21:38:18.815Z,18.63
2022-12-04T21:40:51.172Z,18.02
2022-12-04T21:43:19.182Z,17.45
2022-12-04T21:45:57.767Z,16.75
2022-12-04T21:48:25.826Z,17.25
2022-12-04T21:50:54.078Z,16.42
2022-12-04T21:53:22.588Z,17.10
2022-12-04T21:55:54.104Z,15.88
2022-12-04T21:58:24.052Z,15.05
2022-12-04T22:00:52.901Z,14.00
2022-12-04T22:03:21.284Z,14.60
2022-12-04T22:05:49.341Z,11.85
2022-12-04T22:08:17.427Z,11.68
2022-12-04T22:10:47.208Z,10.77
2022-12-04T22:13:16.600Z,10.80
2022-12-04T22:15:45.402Z,9.02
2022-12-04T22:18:14.162Z,8.68
2022-12-04T22:20:42.965Z,9.00
2022-12-04T22:23:11.654Z,8.30
2022-12-04T22:25:39.773Z,6.45
2022-12-04T22:28:07.763Z,7.03
2022-12-04T22:30:37.193Z,6.18
2022-12-04T22:33:05.467Z,6.22
2022-12-04T22:35:33.593Z,6.13
2022-12-04T22:38:01.614Z,6.60
2022-12-04T22:40:29.765Z,6.15
2022-12-04T22:42:57.811Z,5.97
2022-12-04T22:45:25.876Z,5.45
2022-12-04T22:47:55.297Z,6.38
2022-12-04T22:50:23.316Z,5.95
2022-12-04T22:52:51.311Z,6.47
2022-12-04T22:55:19.310Z,6.05
2022-12-04T22:57:47.315Z,5.75
2022-12-04T23:00:15.932Z,5.00
2022-12-04T23:02:43.964Z,5.60
2022-12-04T23:05:13.441Z,5.63
2022-12-04T23:07:41.522Z,5.10
2022-12-04T23:10:10.161Z,5.90
2022-12-04T23:12:38.188Z,6.35
2022-12-04T23:15:07.027Z,5.22
2022-12-04T23:17:35.029Z,5.78
2022-12-04T23:20:03.055Z,5.45
2022-12-04T23:22:32.407Z,5.30
2022-12-04T23:25:00.657Z,5.65
2022-12-04T23:27:28.695Z,6.20
2022-12-04T23:29:56.675Z,5.78
2022-12-04T23:32:25.006Z,6.35
2022-12-04T23:34:53.166Z,5.93
2022-12-04T23:37:21.210Z,5.80
2022-12-04T23:39:50.588Z,6.75
2022-12-04T23:42:18.640Z,5.80
2022-12-04T23:44:46.675Z,6.07
2022-12-04T23:47:14.782Z,6.60
2022-12-04T23:49:42.861Z,6.78
2022-12-04T23:52:10.848Z,5.78
2022-12-04T23:54:38.927Z,5.68
2022-12-04T23:57:08.781Z,6.32
2022-12-04T23:59:36.795Z,6.10
